KUNV/SCE METAR and TAF weather

Enter ICAO airport designator
Station Type Date Time Source
KUNV METAR 2021/04/17 01:53 UTC NOAA

KUNV 170153Z 29006G15KT 10SM BKN024 OVC030 05/01 A2983


Station Type Date Time Source
KUNV Decoded METAR 2021/04/17 01:53 UTC NOAA

State College, University Park Airport, PA, United States (KUNV) 40-51N 077-51W
Apr 16, 2021 - 09:53 PM EDT / 2021.04.17 0153 UTC
Wind: from the WNW (290 degrees) at 7 MPH (6 KT) gusting to 17 MPH (15 KT):0
Visibility: 10 mile(s):0
Sky conditions: overcast
Temperature: 41 F (5 C)
Dew Point: 33 F (1 C)
Relative Humidity: 75%
Pressure (altimeter): 29.83 in. Hg (1010 hPa)
ob: KUNV 170153Z 29006G15KT 10SM BKN024 OVC030 05/01 A2983
cycle: 2

Station Type Date Time Source
KUNV TAF 2021/04/17 01:40 UTC NOAA

TAF
AMD KUNV 170038Z 1701/1724 29008G15KT P6SM OVC025
FM170600 30007KT P6SM OVC020
FM171500 31007KT P6SM SCT025 OVC035

Example: see airport list